Time,TemperatureF,DewpointF,PressureIn,WindDirection,WindDirectionDegrees,WindSpeedMPH,WindSpeedGustMPH,Humidity,HourlyPrecipIn,Conditions,Clouds,dailyrainin,SoftwareType,DateUTC
2013-01-31 00:00:00,35.7,32.5,29.29,East,82,3.0,17.0,88,0.00,RMK !SN!,RMK !SN!,0.31,WUHU216DAVISVP2,2013-01-31 05:00:00,
2013-01-31 00:02:00,35.7,32.7,29.29,East,96,8.0,15.0,89,0.00,RMK !SN!,RMK !SN!,0.00,WUHU216DAVISVP2,2013-01-31 05:02:00,
2013-01-31 00:07:00,35.2,32.5,29.29,North,1,3.0,15.0,90,0.00,RMK !SN!,RMK !SN!,0.00,WUHU216DAVISVP2,2013-01-31 05:07:00,
2013-01-31 00:12:00,34.6,31.9,29.29,South,169,4.0,15.0,90,0.00,RMK !SN!,RMK !SN!,0.00,WUHU216DAVISVP2,2013-01-31 05:12:00,
2013-01-31 00:17:00,34.0,31.6,29.30,ESE,113,10.0,15.0,91,0.00,RMK !SN!,RMK !SN!,0.00,WUHU216DAVISVP2,2013-01-31 05:17:00,
2013-01-31 00:22:00,33.7,31.6,29.30,East,98,5.0,16.0,92,0.00,RMK !SN!,RMK !SN!,0.00,WUHU216DAVISVP2,2013-01-31 05:22:00,
2013-01-31 00:27:00,33.6,31.7,29.31,ENE,70,10.0,16.0,93,0.00,RMK !SN!,RMK !SN!,0.00,WUHU216DAVISVP2,2013-01-31 05:27:00,
2013-01-31 00:32:00,33.7,31.3,29.30,ESE,105,1.0,17.0,91,0.00,RMK !SN!,RMK !SN!,0.00,WUHU216DAVISVP2,2013-01-31 05:32:00,
2013-01-31 00:37:00,33.7,31.0,29.31,ESE,110,7.0,17.0,90,0.00,RMK !SN!,RMK !SN!,0.00,WUHU216DAVISVP2,2013-01-31 05:37:00,
2013-01-31 00:42:00,33.7,31.3,29.31,East,86,6.0,17.0,91,0.00,RMK !SN!,RMK !SN!,0.00,WUHU216DAVISVP2,2013-01-31 05:42:00,
2013-01-31 00:47:00,33.8,31.1,29.31,NNW,345,4.0,17.0,90,0.00,RMK !SN!,RMK !SN!,0.00,WUHU216DAVISVP2,2013-01-31 05:47:00,
2013-01-31 00:52:00,33.8,31.1,29.31,East,98,2.0,17.0,90,0.00,RMK !SN!,RMK !SN!,0.00,WUHU216DAVISVP2,2013-01-31 05:52:00,
2013-01-31 00:57:00,33.8,31.1,29.31,East,79,4.0,16.0,90,0.00,RMK !SN!,RMK !SN!,0.00,WUHU216DAVISVP2,2013-01-31 05:57:00,
2013-01-31 01:02:00,33.7,31.3,29.32,NNE,33,10.0,16.0,91,0.00,RMK !SN!,RMK !SN!,0.00,WUHU216DAVISVP2,2013-01-31 06:02:00,
2013-01-31 01:07:00,33.3,31.2,29.33,NE,44,6.0,15.0,92,0.00,RMK !SN!,RMK !SN!,0.00,WUHU216DAVISVP2,2013-01-31 06:07:00,
2013-01-31 01:12:00,33.1,31.2,29.32,East,94,10.0,15.0,93,0.00,RMK !SN!,RMK !SN!,0.00,WUHU216DAVISVP2,2013-01-31 06:12:00,
2013-01-31 01:17:00,33.1,31.0,29.33,ENE,72,5.0,14.0,92,0.00,RMK !SN!,RMK !SN!,0.00,WUHU216DAVISVP2,2013-01-31 06:17:00,
2013-01-31 01:22:00,33.1,30.4,29.34,NE,51,5.0,12.0,90,0.00,RMK !SN!,RMK !SN!,0.00,WUHU216DAVISVP2,2013-01-31 06:22:00,
2013-01-31 01:27:00,33.0,29.8,29.33,SSE,150,3.0,20.0,88,0.00,RMK !SN!,RMK !SN!,0.00,WUHU216DAVISVP2,2013-01-31 06:27:00,
2013-01-31 01:32:00,33.0,29.8,29.34,East,101,10.0,20.0,88,0.00,RMK !SN!,RMK !SN!,0.00,WUHU216DAVISVP2,2013-01-31 06:32:00,
2013-01-31 01:37:00,32.9,29.7,29.34,ENE,70,11.0,18.0,88,0.00,RMK !SN!,RMK !SN!,0.00,WUHU216DAVISVP2,2013-01-31 06:37:00,
2013-01-31 01:42:00,32.7,29.5,29.34,ENE,58,7.0,18.0,88,0.00,RMK !SN!,RMK !SN!,0.00,WUHU216DAVISVP2,2013-01-31 06:42:00,
2013-01-31 01:47:00,32.7,29.3,29.35,ESE,108,7.0,16.0,87,0.00,RMK !SN!,RMK !SN!,0.00,WUHU216DAVISVP2,2013-01-31 06:47:00,
2013-01-31 01:52:00,32.6,28.3,29.35,SE,140,1.0,18.0,84,0.00,RMK !SN!,RMK !SN!,0.00,WUHU216DAVISVP2,2013-01-31 06:52:00,
2013-01-31 01:57:00,32.6,28.6,29.35,East,84,4.0,18.0,85,0.00,RMK !SN!,RMK !SN!,0.00,WUHU216DAVISVP2,2013-01-31 06:57:00,
2013-01-31 02:02:00,32.5,28.5,29.36,ESE,108,6.0,21.0,85,0.00,RMK !SN!,RMK !SN!,0.00,WUHU216DAVISVP2,2013-01-31 07:02:00,
2013-01-31 02:07:00,32.4,28.4,29.36,SSW,203,2.0,21.0,85,0.00,RMK !SN!,RMK !SN!,0.00,WUHU216DAVISVP2,2013-01-31 07:07:00,
2013-01-31 02:12:00,32.3,27.7,29.37,ENE,78,15.0,21.0,83,0.00,RMK !SN!,RMK !SN!,0.00,WUHU216DAVISVP2,2013-01-31 07:12:00,
2013-01-31 02:17:00,32.2,27.6,29.37,ENE,65,8.0,19.0,83,0.00,RMK !SN!,RMK !SN!,0.00,WUHU216DAVISVP2,2013-01-31 07:17:00,
2013-01-31 02:22:00,32.0,27.4,29.38,East,86,4.0,16.0,83,0.00,RMK !SN!,RMK !SN!,0.00,WUHU216DAVISVP2,2013-01-31 07:22:00,
2013-01-31 02:27:00,31.8,27.2,29.39,ENE,57,9.0,16.0,83,0.00,RMK !SN!,RMK !SN!,0.00,WUHU216DAVISVP2,2013-01-31 07:27:00,
2013-01-31 02:32:00,31.6,25.2,29.39,ENE,72,14.0,20.0,77,0.00,RMK !SN!,RMK !SN!,0.00,WUHU216DAVISVP2,2013-01-31 07:32:00,
2013-01-31 02:37:00,31.5,24.5,29.40,East,85,11.0,20.0,75,0.00,RMK !SN!,RMK !SN!,0.00,WUHU216DAVISVP2,2013-01-31 07:37:00,
2013-01-31 02:42:00,31.4,23.8,29.40,ENE,70,3.0,18.0,73,0.00,RMK !SN!,RMK !SN!,0.00,WUHU216DAVISVP2,2013-01-31 07:42:00,
2013-01-31 02:47:00,31.3,23.3,29.40,NE,36,8.0,22.0,72,0.00,RMK !SN!,RMK !SN!,0.00,WUHU216DAVISVP2,2013-01-31 07:47:00,
2013-01-31 02:52:00,31.3,23.7,29.41,NE,39,15.0,22.0,73,0.00,RMK !SN!,RMK !SN!,0.00,WUHU216DAVISVP2,2013-01-31 07:52:00,
2013-01-31 02:57:00,31.3,24.3,29.41,East,86,5.0,21.0,75,0.00,RMK !SN!,RMK !SN!,0.00,WUHU216DAVISVP2,2013-01-31 07:57:00,
2013-01-31 03:02:00,31.2,23.9,29.41,East,81,8.0,20.0,74,0.00,RMK !SN!,RMK !SN!,0.00,WUHU216DAVISVP2,2013-01-31 08:02:00,
2013-01-31 03:07:00,31.1,23.8,29.42,East,84,10.0,18.0,74,0.00,RMK !SN!,RMK !SN!,0.00,WUHU216DAVISVP2,2013-01-31 08:07:00,
2013-01-31 03:12:00,31.1,24.5,29.42,ENE,57,13.0,18.0,76,0.00,RMK !SN!,RMK !SN!,0.00,WUHU216DAVISVP2,2013-01-31 08:12:00,
2013-01-31 03:17:00,31.0,24.0,29.42,SSE,153,8.0,26.0,75,0.00,RMK !SN!,RMK !SN!,0.00,WUHU216DAVISVP2,2013-01-31 08:17:00,
2013-01-31 03:22:00,30.9,23.6,29.42,East,84,14.0,26.0,74,0.00,RMK !SN!,RMK !SN!,0.00,WUHU216DAVISVP2,2013-01-31 08:22:00,
2013-01-31 03:27:00,30.8,23.5,29.43,East,94,8.0,25.0,74,0.00,RMK !SN!,RMK !SN!,0.00,WUHU216DAVISVP2,2013-01-31 08:27:00,
2013-01-31 03:32:00,30.7,22.7,29.43,SE,131,4.0,25.0,72,0.00,RMK !SN!,RMK !SN!,0.00,WUHU216DAVISVP2,2013-01-31 08:32:00,
2013-01-31 03:37:00,30.6,22.7,29.43,ENE,67,3.0,17.0,72,0.00,RMK !SN!,RMK !SN!,0.00,WUHU216DAVISVP2,2013-01-31 08:37:00,
2013-01-31 03:43:00,30.6,22.4,29.44,ENE,77,11.0,20.0,71,0.00,RMK !SN!,RMK !SN!,0.00,WUHU216DAVISVP2,2013-01-31 08:43:00,
2013-01-31 03:48:00,30.5,21.9,29.44,NNE,18,5.0,20.0,70,0.00,RMK !SN!,RMK !SN!,0.00,WUHU216DAVISVP2,2013-01-31 08:48:00,
2013-01-31 03:53:00,30.4,22.2,29.44,ENE,60,7.0,19.0,71,0.00,RMK !SN!,RMK !SN!,0.00,WUHU216DAVISVP2,2013-01-31 08:53:00,
2013-01-31 03:58:00,30.4,22.2,29.43,ENE,59,16.0,18.0,71,0.00,RMK !SN!,RMK !SN!,0.00,WUHU216DAVISVP2,2013-01-31 08:58:00,
2013-01-31 04:03:00,30.3,21.7,29.43,ENE,63,7.0,18.0,70,0.00,RMK !SN!,RMK !SN!,0.00,WUHU216DAVISVP2,2013-01-31 09:03:00,
2013-01-31 04:08:00,30.2,21.3,29.44,ENE,68,8.0,21.0,69,0.00,RMK !SN!,RMK !SN!,0.00,WUHU216DAVISVP2,2013-01-31 09:08:00,
2013-01-31 04:13:00,30.2,22.0,29.44,ESE,110,3.0,21.0,71,0.00,RMK !SN!,RMK !SN!,0.00,WUHU216DAVISVP2,2013-01-31 09:13:00,
2013-01-31 04:18:00,30.2,22.3,29.44,ENE,75,13.0,21.0,72,0.00,RMK !SN!,RMK !SN!,0.00,WUHU216DAVISVP2,2013-01-31 09:18:00,
2013-01-31 04:23:00,30.0,22.1,29.45,SW,236,6.0,19.0,72,0.00,RMK !SN!,RMK !SN!,0.00,WUHU216DAVISVP2,2013-01-31 09:23:00,
2013-01-31 04:28:00,29.8,22.6,29.45,East,88,7.0,17.0,74,0.00,RMK !SN!,RMK !SN!,0.00,WUHU216DAVISVP2,2013-01-31 09:28:00,
2013-01-31 04:33:00,29.6,22.7,29.46,SSE,158,4.0,17.0,75,0.00,RMK !SN!,RMK !SN!,0.00,WUHU216DAVISVP2,2013-01-31 09:33:00,
2013-01-31 04:38:00,29.2,23.5,29.46,SE,130,3.0,15.0,79,0.00,RMK !SN!,RMK !SN!,0.00,WUHU216DAVISVP2,2013-01-31 09:38:00,
2013-01-31 04:43:00,28.7,23.6,29.47,NE,51,8.0,16.0,81,0.00,RMK !SN!,RMK !SN!,0.00,WUHU216DAVISVP2,2013-01-31 09:43:00,
2013-01-31 04:48:00,28.5,23.7,29.47,East,101,5.0,16.0,82,0.00,RMK !SN!,RMK !SN!,0.00,WUHU216DAVISVP2,2013-01-31 09:48:00,
2013-01-31 04:53:00,28.5,23.7,29.47,East,86,8.0,14.0,82,0.00,RMK !SN!,RMK !SN!,0.00,WUHU216DAVISVP2,2013-01-31 09:53:00,
2013-01-31 04:58:00,28.4,23.9,29.47,ENE,70,5.0,17.0,83,0.00,RMK !SN!,RMK !SN!,0.00,WUHU216DAVISVP2,2013-01-31 09:58:00,
2013-01-31 05:03:00,28.4,23.9,29.47,SE,134,1.0,17.0,83,0.00,RMK !SN!,RMK !SN!,0.00,WUHU216DAVISVP2,2013-01-31 10:03:00,
2013-01-31 05:08:00,28.3,24.1,29.48,ESE,115,1.0,15.0,84,0.00,RMK !SN!,RMK !SN!,0.00,WUHU216DAVISVP2,2013-01-31 10:08:00,
2013-01-31 05:13:00,28.2,24.5,29.48,SSE,153,7.0,15.0,86,0.00,RMK !SN!,RMK !SN!,0.00,WUHU216DAVISVP2,2013-01-31 10:13:00,
2013-01-31 05:18:00,27.8,24.1,29.49,SE,124,3.0,12.0,86,0.00,RMK !SN!,RMK !SN!,0.00,WUHU216DAVISVP2,2013-01-31 10:18:00,
2013-01-31 05:23:00,27.6,24.2,29.49,ESE,115,4.0,12.0,87,0.00,RMK !SN!,RMK !SN!,0.00,WUHU216DAVISVP2,2013-01-31 10:23:00,
2013-01-31 05:28:00,27.4,23.7,29.49,ESE,117,5.0,21.0,86,0.00,RMK !SN!,RMK !SN!,0.00,WUHU216DAVISVP2,2013-01-31 10:28:00,
2013-01-31 05:33:00,27.5,22.7,29.50,East,96,12.0,22.0,82,0.00,RMK !SN!,RMK !SN!,0.00,WUHU216DAVISVP2,2013-01-31 10:33:00,
2013-01-31 05:38:00,27.5,22.1,29.51,NNE,30,4.0,22.0,80,0.00,RMK !SN!,RMK !SN!,0.00,WUHU216DAVISVP2,2013-01-31 10:38:00,
2013-01-31 05:43:00,27.5,21.9,29.51,East,94,8.0,25.0,79,0.00,RMK !SN!,RMK !SN!,0.00,WUHU216DAVISVP2,2013-01-31 10:43:00,
2013-01-31 05:48:00,27.3,21.3,29.51,ENE,68,7.0,25.0,78,0.00,RMK !SN!,RMK !SN!,0.00,WUHU216DAVISVP2,2013-01-31 10:48:00,
2013-01-31 05:54:00,27.2,21.3,29.51,ENE,69,4.0,24.0,78,0.00,RMK !SN!,RMK !SN!,0.00,WUHU216DAVISVP2,2013-01-31 10:54:00,
2013-01-31 05:59:00,27.1,21.5,29.52,NE,49,2.0,24.0,79,0.00,RMK !SN!,RMK !SN!,0.00,WUHU216DAVISVP2,2013-01-31 10:59:00,
2013-01-31 06:04:00,26.9,21.3,29.53,ENE,64,6.0,18.0,79,0.00,RMK !SN!,RMK !SN!,0.00,WUHU216DAVISVP2,2013-01-31 11:04:00,
2013-01-31 06:09:00,26.7,20.8,29.53,East,98,10.0,24.0,78,0.00,RMK !SN!,RMK !SN!,0.00,WUHU216DAVISVP2,2013-01-31 11:09:00,
2013-01-31 06:14:00,26.6,21.0,29.53,ENE,58,6.0,24.0,79,0.00,RMK !SN!,RMK !SN!,0.00,WUHU216DAVISVP2,2013-01-31 11:14:00,
2013-01-31 06:19:00,26.5,21.2,29.54,NNE,22,3.0,22.0,80,0.00,RMK !SN!,RMK !SN!,0.00,WUHU216DAVISVP2,2013-01-31 11:19:00,
2013-01-31 06:24:00,26.4,20.5,29.54,NE,47,2.0,22.0,78,0.00,RMK !SN!,RMK !SN!,0.00,WUHU216DAVISVP2,2013-01-31 11:24:00,
2013-01-31 06:29:00,26.2,20.0,29.54,East,80,10.0,18.0,77,0.00,RMK !SN!,RMK !SN!,0.00,WUHU216DAVISVP2,2013-01-31 11:29:00,
2013-01-31 06:34:00,26.0,19.2,29.55,SE,144,7.0,20.0,75,0.00,RMK !SN!,RMK !SN!,0.00,WUHU216DAVISVP2,2013-01-31 11:34:00,
2013-01-31 06:39:00,25.9,18.8,29.55,ESE,103,3.0,24.0,74,0.00,RMK !SN!,RMK !SN!,0.00,WUHU216DAVISVP2,2013-01-31 11:39:00,
2013-01-31 06:44:00,26.0,18.9,29.55,NE,52,8.0,24.0,74,0.00,RMK !SN!,RMK !SN!,0.00,WUHU216DAVISVP2,2013-01-31 11:44:00,
2013-01-31 06:49:00,26.0,18.9,29.55,ENE,57,8.0,22.0,74,0.00,RMK !SN!,RMK !SN!,0.00,WUHU216DAVISVP2,2013-01-31 11:49:00,
2013-01-31 06:54:00,25.9,19.1,29.56,East,80,8.0,15.0,75,0.00,RMK !SN!,RMK !SN!,0.00,WUHU216DAVISVP2,2013-01-31 11:54:00,
2013-01-31 06:59:00,25.9,19.1,29.56,ENE,63,8.0,14.0,75,0.00,RMK !SN!,RMK !SN!,0.00,WUHU216DAVISVP2,2013-01-31 11:59:00,
2013-01-31 07:04:00,25.7,19.2,29.57,ENE,65,11.0,20.0,76,0.00,RMK !SN!,RMK !SN!,0.00,WUHU216DAVISVP2,2013-01-31 12:04:00,
2013-01-31 07:09:00,25.4,19.5,29.57,East,89,11.0,20.0,78,0.00,RMK !SN!,RMK !SN!,0.00,WUHU216DAVISVP2,2013-01-31 12:09:00,
2013-01-31 07:14:00,25.0,19.7,29.58,ENE,70,2.0,19.0,80,0.00,RMK !SN!,RMK !SN!,0.00,WUHU216DAVISVP2,2013-01-31 12:14:00,
2013-01-31 07:19:00,24.8,19.2,29.58,East,86,5.0,18.0,79,0.00,RMK !SN!,RMK !SN!,0.00,WUHU216DAVISVP2,2013-01-31 12:19:00,
2013-01-31 07:24:00,24.8,18.9,29.58,North,355,8.0,16.0,78,0.00,RMK !SN!,RMK !SN!,0.00,WUHU216DAVISVP2,2013-01-31 12:24:00,
2013-01-31 07:29:00,24.8,18.6,29.59,ESE,117,4.0,18.0,77,0.00,RMK !SN!,RMK !SN!,0.00,WUHU216DAVISVP2,2013-01-31 12:29:00,
2013-01-31 07:34:00,24.8,17.4,29.59,NE,37,6.0,18.0,73,0.00,RMK !SN!,RMK !SN!,0.00,WUHU216DAVISVP2,2013-01-31 12:34:00,
2013-01-31 07:39:00,24.9,17.8,29.59,ESE,115,6.0,18.0,74,0.00,RMK !SN!,RMK !SN!,0.00,WUHU216DAVISVP2,2013-01-31 12:39:00,
2013-01-31 07:44:00,24.6,18.4,29.60,East,82,11.0,17.0,77,0.00,RMK !SN!,RMK !SN!,0.00,WUHU216DAVISVP2,2013-01-31 12:44:00,
2013-01-31 07:49:00,23.5,19.9,29.60,ESE,108,4.0,17.0,86,0.00,RMK !SN!,RMK !SN!,0.00,WUHU216DAVISVP2,2013-01-31 12:49:00,
2013-01-31 07:54:00,23.0,20.2,29.61,ENE,68,10.0,16.0,89,0.00,RMK !SN!,RMK !SN!,0.00,WUHU216DAVISVP2,2013-01-31 12:54:00,
2013-01-31 07:59:00,22.7,20.4,29.61,ESE,111,2.0,16.0,91,0.00,RMK !SN!,RMK !SN!,0.00,WUHU216DAVISVP2,2013-01-31 12:59:00,
2013-01-31 08:04:00,22.7,20.4,29.62,ENE,68,10.0,20.0,91,0.00,RMK !SN!,RMK !SN!,0.00,WUHU216DAVISVP2,2013-01-31 13:04:00,
2013-01-31 08:09:00,22.9,18.2,29.62,ENE,73,14.0,20.0,82,0.00,RMK !SN!,RMK !SN!,0.00,WUHU216DAVISVP2,2013-01-31 13:09:00,
2013-01-31 08:14:00,23.1,17.6,29.62,ENE,64,9.0,18.0,79,0.00,RMK !SN!,RMK !SN!,0.00,WUHU216DAVISVP2,2013-01-31 13:14:00,
2013-01-31 08:19:00,23.4,17.6,29.63,East,95,7.0,18.0,78,0.00,RMK !SN!,RMK !SN!,0.00,WUHU216DAVISVP2,2013-01-31 13:19:00,
2013-01-31 08:24:00,23.4,17.3,29.63,East,83,2.0,15.0,77,0.00,RMK !SN!,RMK !SN!,0.00,WUHU216DAVISVP2,2013-01-31 13:24:00,
2013-01-31 08:29:00,23.5,17.1,29.64,ENE,72,3.0,17.0,76,0.00,RMK !SN!,RMK !SN!,0.00,WUHU216DAVISVP2,2013-01-31 13:29:00,
2013-01-31 08:34:00,23.5,16.5,29.64,WNW,282,2.0,17.0,74,0.00,RMK !SN!,RMK !SN!,0.00,WUHU216DAVISVP2,2013-01-31 13:34:00,
2013-01-31 08:39:00,23.5,15.5,29.65,NE,45,8.0,19.0,71,0.00,RMK !SN!,RMK !SN!,0.00,WUHU216DAVISVP2,2013-01-31 13:39:00,
2013-01-31 08:44:00,23.6,15.0,29.64,ENE,62,5.0,19.0,69,0.00,RMK !SN!,RMK !SN!,0.00,WUHU216DAVISVP2,2013-01-31 13:44:00,
2013-01-31 08:49:00,23.6,15.6,29.64,ENE,70,13.0,21.0,71,0.00,RMK !SN!,RMK !SN!,0.00,WUHU216DAVISVP2,2013-01-31 13:49:00,
2013-01-31 08:54:00,23.4,16.1,29.65,NE,44,4.0,21.0,73,0.00,RMK !SN!,RMK !SN!,0.00,WUHU216DAVISVP2,2013-01-31 13:54:00,
2013-01-31 08:59:00,23.4,16.1,29.65,East,79,4.0,21.0,73,0.00,RMK !SN!,RMK !SN!,0.00,WUHU216DAVISVP2,2013-01-31 13:59:00,
2013-01-31 09:04:00,23.2,15.9,29.65,ENE,65,5.0,20.0,73,0.00,RMK !SN!,RMK !SN!,0.00,WUHU216DAVISVP2,2013-01-31 14:04:00,
2013-01-31 09:09:00,23.0,15.7,29.66,ENE,74,4.0,20.0,73,0.00,RMK !SN!,RMK !SN!,0.00,WUHU216DAVISVP2,2013-01-31 14:09:00,
2013-01-31 09:14:00,23.0,15.4,29.66,NE,36,10.0,20.0,72,0.00,RMK !SN!,RMK !SN!,0.00,WUHU216DAVISVP2,2013-01-31 14:14:00,
2013-01-31 09:19:00,23.1,15.5,29.66,North,9,3.0,20.0,72,0.00,RMK !SN!,RMK !SN!,0.00,WUHU216DAVISVP2,2013-01-31 14:19:00,
2013-01-31 09:24:00,23.1,15.1,29.67,ESE,104,3.0,17.0,71,0.00,RMK !SN!,RMK !SN!,0.00,WUHU216DAVISVP2,2013-01-31 14:24:00,
2013-01-31 09:29:00,23.1,14.8,29.67,ESE,105,3.0,17.0,70,0.00,RMK !SN!,RMK !SN!,0.00,WUHU216DAVISVP2,2013-01-31 14:29:00,
2013-01-31 09:34:00,23.1,15.5,29.67,ENE,64,16.0,19.0,72,0.00,RMK !SN!,RMK !SN!,0.00,WUHU216DAVISVP2,2013-01-31 14:34:00,
2013-01-31 09:39:00,22.7,17.2,29.68,NE,44,7.0,19.0,79,0.00,RMK !SN!,RMK !SN!,0.00,WUHU216DAVISVP2,2013-01-31 14:39:00,
2013-01-31 09:44:00,22.3,17.9,29.68,ENE,72,0.0,17.0,83,0.00,RMK !SN!,RMK !SN!,0.00,WUHU216DAVISVP2,2013-01-31 14:44:00,
2013-01-31 09:49:00,22.2,18.1,29.68,NNE,27,6.0,17.0,84,0.00,RMK !SN!,RMK !SN!,0.00,WUHU216DAVISVP2,2013-01-31 14:49:00,
2013-01-31 09:54:00,21.8,18.2,29.68,NE,49,8.0,15.0,86,0.00,RMK !SN!,RMK !SN!,0.00,WUHU216DAVISVP2,2013-01-31 14:54:00,
2013-01-31 09:59:00,21.6,18.1,29.68,ESE,120,3.0,21.0,86,0.00,RMK !SN!,RMK !SN!,0.00,WUHU216DAVISVP2,2013-01-31 14:59:00,
2013-01-31 10:04:00,21.9,17.8,29.69,ENE,71,5.0,21.0,84,0.00,RMK !SN!,RMK !SN!,0.00,WUHU216DAVISVP2,2013-01-31 15:04:00,
2013-01-31 10:09:00,22.3,17.1,29.69,NNE,20,7.0,20.0,80,0.00,RMK !SN!,RMK !SN!,0.00,WUHU216DAVISVP2,2013-01-31 15:09:00,
2013-01-31 10:14:00,22.3,17.1,29.69,North,356,3.0,20.0,80,0.00,RMK !SN!,RMK !SN!,0.00,WUHU216DAVISVP2,2013-01-31 15:14:00,
2013-01-31 10:19:00,22.4,16.6,29.69,ENE,76,8.0,15.0,78,0.00,RMK !SN!,RMK !SN!,0.00,WUHU216DAVISVP2,2013-01-31 15:19:00,
2013-01-31 10:24:00,22.7,17.2,29.69,ENE,72,8.0,20.0,79,0.00,RMK !SN!,RMK !SN!,0.00,WUHU216DAVISVP2,2013-01-31 15:24:00,
2013-01-31 10:30:00,22.9,16.5,29.69,ENE,60,11.0,21.0,76,0.00,RMK !SN!,RMK !SN!,0.00,WUHU216DAVISVP2,2013-01-31 15:30:00,
2013-01-31 10:35:00,23.2,16.5,29.69,East,101,3.0,21.0,75,0.00,RMK !SN!,RMK !SN!,0.00,WUHU216DAVISVP2,2013-01-31 15:35:00,
2013-01-31 10:40:00,23.7,16.3,29.69,East,84,7.0,20.0,73,0.00,RMK !SN!,RMK !SN!,0.00,WUHU216DAVISVP2,2013-01-31 15:40:00,
2013-01-31 10:45:00,23.9,15.9,29.70,East,94,6.0,20.0,71,0.00,RMK !SN!,RMK !SN!,0.00,WUHU216DAVISVP2,2013-01-31 15:45:00,
2013-01-31 10:50:00,23.4,16.7,29.71,NNE,23,11.0,18.0,75,0.00,RMK !SN!,RMK !SN!,0.00,WUHU216DAVISVP2,2013-01-31 15:50:00,
2013-01-31 10:55:00,23.1,16.7,29.71,ENE,57,7.0,18.0,76,0.00,RMK !SN!,RMK !SN!,0.00,WUHU216DAVISVP2,2013-01-31 15:55:00,
2013-01-31 11:00:00,23.4,16.6,29.71,NNW,336,6.0,17.0,75,0.00,RMK !SN!,RMK !SN!,0.00,WUHU216DAVISVP2,2013-01-31 16:00:00,
2013-01-31 11:05:00,23.1,15.1,29.71,East,79,9.0,18.0,71,0.00,RMK !SN!,RMK !SN!,0.00,WUHU216DAVISVP2,2013-01-31 16:05:00,
2013-01-31 11:10:00,23.0,15.4,29.71,NNE,27,8.0,18.0,72,0.00,RMK !SN!,RMK !SN!,0.00,WUHU216DAVISVP2,2013-01-31 16:10:00,
2013-01-31 11:15:00,22.9,14.9,29.71,NE,47,6.0,20.0,71,0.00,RMK !SN!,RMK !SN!,0.00,WUHU216DAVISVP2,2013-01-31 16:15:00,
2013-01-31 11:20:00,23.1,15.1,29.72,ENE,68,11.0,20.0,71,0.00,RMK !SN!,RMK !SN!,0.00,WUHU216DAVISVP2,2013-01-31 16:20:00,
2013-01-31 11:25:00,23.2,14.9,29.72,East,88,8.0,19.0,70,0.00,RMK !SN!,RMK !SN!,0.00,WUHU216DAVISVP2,2013-01-31 16:25:00,
2013-01-31 11:30:00,23.2,14.9,29.72,NE,39,3.0,18.0,70,0.00,RMK !SN!,RMK !SN!,0.00,WUHU216DAVISVP2,2013-01-31 16:30:00,
2013-01-31 11:35:00,23.0,14.4,29.73,NE,49,5.0,22.0,69,0.00,RMK !SN!,RMK !SN!,0.00,WUHU216DAVISVP2,2013-01-31 16:35:00,
2013-01-31 11:40:00,22.9,14.9,29.73,East,79,13.0,22.0,71,0.00,RMK !SN!,RMK !SN!,0.00,WUHU216DAVISVP2,2013-01-31 16:40:00,
2013-01-31 11:45:00,23.0,15.0,29.73,NW,323,4.0,20.0,71,0.00,RMK !SN!,RMK !SN!,0.00,WUHU216DAVISVP2,2013-01-31 16:45:00,
2013-01-31 11:50:00,22.8,13.9,29.73,ENE,61,4.0,20.0,68,0.00,RMK !SN!,RMK !SN!,0.00,WUHU216DAVISVP2,2013-01-31 16:50:00,
2013-01-31 11:55:00,22.5,13.9,29.74,NE,41,10.0,19.0,69,0.00,RMK !SN!,RMK !SN!,0.00,WUHU216DAVISVP2,2013-01-31 16:55:00,
2013-01-31 12:00:00,22.5,14.2,29.73,ENE,64,3.0,18.0,70,0.00,RMK !SN!,RMK !SN!,0.00,WUHU216DAVISVP2,2013-01-31 17:00:00,
2013-01-31 12:05:00,22.7,14.4,29.74,ENE,59,6.0,18.0,70,0.00,RMK !SN!,RMK !SN!,0.00,WUHU216DAVISVP2,2013-01-31 17:05:00,
2013-01-31 12:10:00,22.5,13.9,29.74,ENE,68,5.0,19.0,69,0.00,RMK !SN!,RMK !SN!,0.00,WUHU216DAVISVP2,2013-01-31 17:10:00,
2013-01-31 12:15:00,22.4,13.2,29.74,SSW,208,4.0,20.0,67,0.00,RMK !SN!,RMK !SN!,0.00,WUHU216DAVISVP2,2013-01-31 17:15:00,
2013-01-31 12:20:00,22.4,13.2,29.74,SSE,163,2.0,20.0,67,0.00,RMK !SN!,RMK !SN!,0.00,WUHU216DAVISVP2,2013-01-31 17:20:00,
2013-01-31 12:25:00,22.5,13.9,29.74,East,86,2.0,20.0,69,0.00,RMK !SN!,RMK !SN!,0.00,WUHU216DAVISVP2,2013-01-31 17:25:00,
2013-01-31 12:30:00,22.4,13.2,29.75,East,83,2.0,17.0,67,0.00,RMK !SN!,RMK !SN!,0.00,WUHU216DAVISVP2,2013-01-31 17:30:00,
2013-01-31 12:35:00,22.2,13.0,29.75,NE,54,8.0,17.0,67,0.00,RMK !SN!,RMK !SN!,0.00,WUHU216DAVISVP2,2013-01-31 17:35:00,
2013-01-31 12:40:00,21.9,13.0,29.75,NE,56,4.0,18.0,68,0.00,RMK !SN!,RMK !SN!,0.00,WUHU216DAVISVP2,2013-01-31 17:40:00,
2013-01-31 12:45:00,21.7,13.1,29.75,NE,50,6.0,18.0,69,0.00,RMK !SN!,RMK !SN!,0.00,WUHU216DAVISVP2,2013-01-31 17:45:00,
2013-01-31 12:50:00,21.6,13.1,29.75,NE,53,6.0,16.0,69,0.00,RMK !SN!,RMK !SN!,0.00,WUHU216DAVISVP2,2013-01-31 17:50:00,
2013-01-31 12:55:00,21.7,13.5,29.75,ENE,60,2.0,16.0,70,0.00,RMK !SN!,RMK !SN!,0.00,WUHU216DAVISVP2,2013-01-31 17:55:00,
2013-01-31 13:00:00,21.8,13.2,29.75,East,82,9.0,20.0,69,0.00,RMK !SN!,RMK !SN!,0.00,WUHU216DAVISVP2,2013-01-31 18:00:00,
2013-01-31 13:05:00,22.2,14.0,29.75,East,93,9.0,20.0,70,0.00,RMK !SN!,RMK !SN!,0.00,WUHU216DAVISVP2,2013-01-31 18:05:00,
2013-01-31 13:10:00,22.5,13.5,29.75,NNW,330,4.0,19.0,68,0.00,RMK !SN!,RMK !SN!,0.00,WUHU216DAVISVP2,2013-01-31 18:10:00,
2013-01-31 13:15:00,22.5,13.6,29.75,SE,136,5.0,21.0,68,0.00,RMK !SN!,RMK !SN!,0.00,WUHU216DAVISVP2,2013-01-31 18:15:00,
2013-01-31 13:20:00,22.0,15.0,29.76,NE,50,2.0,21.0,74,0.00,RMK !SN!,RMK !SN!,0.00,WUHU216DAVISVP2,2013-01-31 18:20:00,
2013-01-31 13:25:00,21.7,14.7,29.76,SW,224,2.0,19.0,74,0.00,RMK !SN!,RMK !SN!,0.00,WUHU216DAVISVP2,2013-01-31 18:25:00,
2013-01-31 13:30:00,21.5,14.8,29.76,East,93,2.0,19.0,75,0.00,RMK !SN!,RMK !SN!,0.00,WUHU216DAVISVP2,2013-01-31 18:30:00,
2013-01-31 13:35:00,21.3,15.2,29.76,NW,311,6.0,15.0,77,0.00,RMK !SN!,RMK !SN!,0.00,WUHU216DAVISVP2,2013-01-31 18:35:00,
2013-01-31 13:40:00,20.9,14.3,29.76,East,83,10.0,20.0,75,0.00,RMK !SN!,RMK !SN!,0.00,WUHU216DAVISVP2,2013-01-31 18:40:00,
2013-01-31 13:45:00,21.1,13.5,29.77,ENE,58,8.0,20.0,72,0.00,RMK !SN!,RMK !SN!,0.00,WUHU216DAVISVP2,2013-01-31 18:45:00,
2013-01-31 13:50:00,21.4,13.5,29.76,East,84,6.0,18.0,71,0.00,RMK !SN!,RMK !SN!,0.00,WUHU216DAVISVP2,2013-01-31 18:50:00,
2013-01-31 13:55:00,21.4,14.4,29.77,NE,34,7.0,18.0,74,0.00,RMK !SN!,RMK !SN!,0.00,WUHU216DAVISVP2,2013-01-31 18:55:00,
2013-01-31 14:00:00,20.9,14.8,29.77,NE,46,5.0,18.0,77,0.00,RMK !SN!,RMK !SN!,0.00,WUHU216DAVISVP2,2013-01-31 19:00:00,
2013-01-31 14:05:00,20.8,14.2,29.77,NE,49,4.0,18.0,75,0.00,RMK !SN!,RMK !SN!,0.00,WUHU216DAVISVP2,2013-01-31 19:05:00,
2013-01-31 14:10:00,20.8,14.5,29.77,ENE,65,9.0,18.0,76,0.00,RMK !SN!,RMK !SN!,0.00,WUHU216DAVISVP2,2013-01-31 19:10:00,
2013-01-31 14:15:00,20.9,14.5,29.77,ESE,113,3.0,16.0,76,0.00,RMK !SN!,RMK !SN!,0.00,WUHU216DAVISVP2,2013-01-31 19:15:00,
2013-01-31 14:20:00,21.1,14.7,29.78,ENE,77,1.0,16.0,76,0.00,RMK !SN!,RMK !SN!,0.00,WUHU216DAVISVP2,2013-01-31 19:20:00,
2013-01-31 14:25:00,21.3,15.2,29.78,North,356,10.0,12.0,77,0.00,RMK !SN!,RMK !SN!,0.00,WUHU216DAVISVP2,2013-01-31 19:25:00,
2013-01-31 14:30:00,21.2,13.9,29.78,ENE,65,8.0,14.0,73,0.00,RMK !SN!,RMK !SN!,0.00,WUHU216DAVISVP2,2013-01-31 19:30:00,
2013-01-31 14:35:00,21.2,13.3,29.78,NNE,21,11.0,17.0,71,0.00,RMK !SN!,RMK !SN!,0.00,WUHU216DAVISVP2,2013-01-31 19:35:00,
2013-01-31 14:40:00,21.1,12.9,29.78,North,6,4.0,17.0,70,0.00,RMK !SN!,RMK !SN!,0.00,WUHU216DAVISVP2,2013-01-31 19:40:00,
2013-01-31 14:45:00,21.2,13.3,29.79,ENE,73,4.0,17.0,71,0.00,RMK !SN!,RMK !SN!,0.00,WUHU216DAVISVP2,2013-01-31 19:45:00,
2013-01-31 14:50:00,21.2,13.9,29.79,South,191,5.0,17.0,73,0.00,RMK !SN!,RMK !SN!,0.00,WUHU216DAVISVP2,2013-01-31 19:50:00,
2013-01-31 14:55:00,21.1,14.4,29.79,ENE,65,5.0,17.0,75,0.00,RMK !SN!,RMK !SN!,0.00,WUHU216DAVISVP2,2013-01-31 19:55:00,
2013-01-31 15:00:00,21.0,14.3,29.79,ENE,70,5.0,16.0,75,0.00,RMK !SN!,RMK !SN!,0.00,WUHU216DAVISVP2,2013-01-31 20:00:00,
2013-01-31 15:05:00,21.3,14.3,29.80,South,176,2.0,16.0,74,0.00,RMK !SN!,RMK !SN!,0.00,WUHU216DAVISVP2,2013-01-31 20:05:00,
2013-01-31 15:10:00,21.4,13.8,29.79,NE,36,4.0,16.0,72,0.00,RMK !SN!,RMK !SN!,0.00,WUHU216DAVISVP2,2013-01-31 20:10:00,
2013-01-31 15:19:00,21.0,15.8,29.80,ENE,63,4.0,18.0,80,0.00,RMK !SN!,RMK !SN!,0.00,WUHU216DAVISVP2,2013-01-31 20:19:00,
2013-01-31 15:25:00,20.9,16.8,29.80,ENE,75,3.0,17.0,84,0.00,RMK !SN!,RMK !SN!,0.00,WUHU216DAVISVP2,2013-01-31 20:25:00,
2013-01-31 15:30:00,20.9,16.3,29.80,ENE,61,6.0,17.0,82,0.00,RMK !SN!,RMK !SN!,0.00,WUHU216DAVISVP2,2013-01-31 20:30:00,
2013-01-31 15:35:00,21.3,16.1,29.80,NE,46,4.0,13.0,80,0.00,RMK !SN!,RMK !SN!,0.00,WUHU216DAVISVP2,2013-01-31 20:35:00,
2013-01-31 15:40:00,21.5,16.3,29.80,ESE,122,7.0,14.0,80,0.00,RMK !SN!,RMK !SN!,0.00,WUHU216DAVISVP2,2013-01-31 20:40:00,
2013-01-31 15:45:00,21.3,16.4,29.80,East,80,8.0,15.0,81,0.00,RMK !SN!,RMK !SN!,0.00,WUHU216DAVISVP2,2013-01-31 20:45:00,
2013-01-31 15:50:00,20.9,17.3,29.80,ENE,65,5.0,15.0,86,0.00,RMK !SN!,RMK !SN!,0.00,WUHU216DAVISVP2,2013-01-31 20:50:00,
2013-01-31 15:55:00,21.0,17.7,29.80,ESE,113,5.0,15.0,87,0.00,RMK !SN!,RMK !SN!,0.00,WUHU216DAVISVP2,2013-01-31 20:55:00,
2013-01-31 16:00:00,21.1,17.3,29.80,ESE,103,7.0,14.0,85,0.00,RMK !SN!,RMK !SN!,0.00,WUHU216DAVISVP2,2013-01-31 21:00:00,
2013-01-31 16:05:00,21.2,16.8,29.80,NE,36,8.0,17.0,83,0.00,RMK !SN!,RMK !SN!,0.00,WUHU216DAVISVP2,2013-01-31 21:05:00,
2013-01-31 16:10:00,21.5,16.8,29.80,SE,125,3.0,17.0,82,0.00,RMK !SN!,RMK !SN!,0.00,WUHU216DAVISVP2,2013-01-31 21:10:00,
2013-01-31 16:15:00,21.5,16.3,29.81,East,82,3.0,15.0,80,0.00,RMK !SN!,RMK !SN!,0.00,WUHU216DAVISVP2,2013-01-31 21:15:00,
2013-01-31 16:20:00,21.6,16.7,29.81,East,79,2.0,15.0,81,0.00,RMK !SN!,RMK !SN!,0.00,WUHU216DAVISVP2,2013-01-31 21:20:00,
2013-01-31 16:25:00,21.6,16.4,29.80,ENE,66,2.0,13.0,80,0.00,RMK !SN!,RMK !SN!,0.00,WUHU216DAVISVP2,2013-01-31 21:25:00,
2013-01-31 16:30:00,21.7,16.8,29.80,ENE,72,5.0,13.0,81,0.00,RMK !SN!,RMK !SN!,0.00,WUHU216DAVISVP2,2013-01-31 21:30:00,
2013-01-31 16:35:00,21.8,16.9,29.80,ESE,120,5.0,11.0,81,0.00,RMK !SN!,RMK !SN!,0.00,WUHU216DAVISVP2,2013-01-31 21:35:00,
2013-01-31 16:40:00,21.8,16.9,29.80,ESE,121,3.0,11.0,81,0.00,RMK !SN!,RMK !SN!,0.00,WUHU216DAVISVP2,2013-01-31 21:40:00,
2013-01-31 16:45:00,21.9,16.7,29.80,NE,36,3.0,11.0,80,0.00,RMK !SN!,RMK !SN!,0.00,WUHU216DAVISVP2,2013-01-31 21:45:00,
2013-01-31 16:50:00,22.0,16.5,29.80,NE,53,8.0,11.0,79,0.00,RMK !SN!,RMK !SN!,0.00,WUHU216DAVISVP2,2013-01-31 21:50:00,
2013-01-31 16:55:00,22.1,16.6,29.81,East,80,3.0,11.0,79,0.00,RMK !SN!,RMK !SN!,0.00,WUHU216DAVISVP2,2013-01-31 21:55:00,
2013-01-31 17:00:00,22.2,16.4,29.81,NNE,20,6.0,12.0,78,0.00,RMK !SN!,RMK !SN!,0.00,WUHU216DAVISVP2,2013-01-31 22:00:00,
2013-01-31 17:05:00,22.3,16.2,29.81,ENE,57,6.0,13.0,77,0.00,RMK !SN!,RMK !SN!,0.00,WUHU216DAVISVP2,2013-01-31 22:05:00,
2013-01-31 17:10:00,22.4,16.6,29.81,NNE,20,4.0,13.0,78,0.00,RMK !SN!,RMK !SN!,0.00,WUHU216DAVISVP2,2013-01-31 22:10:00,
2013-01-31 17:15:00,22.3,17.1,29.81,ENE,78,8.0,14.0,80,0.00,RMK !SN!,RMK !SN!,0.00,WUHU216DAVISVP2,2013-01-31 22:15:00,
2013-01-31 17:20:00,22.1,17.4,29.81,NE,53,3.0,14.0,82,0.00,RMK !SN!,RMK !SN!,0.00,WUHU216DAVISVP2,2013-01-31 22:20:00,
2013-01-31 17:25:00,21.8,18.0,29.81,East,82,2.0,13.0,85,0.00,RMK !SN!,RMK !SN!,0.00,WUHU216DAVISVP2,2013-01-31 22:25:00,
2013-01-31 17:30:00,21.6,17.8,29.81,ESE,117,2.0,13.0,85,0.00,RMK !SN!,RMK !SN!,0.00,WUHU216DAVISVP2,2013-01-31 22:30:00,
2013-01-31 17:36:00,21.8,18.0,29.82,East,82,3.0,8.0,85,0.00,RMK !SN!,RMK !SN!,0.00,WUHU216DAVISVP2,2013-01-31 22:36:00,
2013-01-31 17:41:00,21.7,17.9,29.82,NNW,330,3.0,14.0,85,0.00,RMK !SN!,RMK !SN!,0.00,WUHU216DAVISVP2,2013-01-31 22:41:00,
2013-01-31 17:46:00,21.4,18.1,29.82,NE,39,7.0,14.0,87,0.00,RMK !SN!,RMK !SN!,0.00,WUHU216DAVISVP2,2013-01-31 22:46:00,
2013-01-31 17:51:00,21.2,17.9,29.82,East,83,5.0,14.0,87,0.00,RMK !SN!,RMK !SN!,0.00,WUHU216DAVISVP2,2013-01-31 22:51:00,
2013-01-31 17:55:00,21.3,17.7,29.82,WNW,294,3.0,14.0,86,0.00,RMK !SN!,RMK !SN!,0.00,WUHU216DAVISVP2,2013-01-31 22:55:00,
2013-01-31 18:00:00,21.5,17.1,29.82,East,80,2.0,14.0,83,0.00,RMK !SN!,RMK !SN!,0.00,WUHU216DAVISVP2,2013-01-31 23:00:00,
2013-01-31 18:05:00,21.7,15.9,29.83,ENE,60,10.0,12.0,78,0.00,RMK !SN!,RMK !SN!,0.00,WUHU216DAVISVP2,2013-01-31 23:05:00,
2013-01-31 18:10:00,21.9,15.2,29.83,SSE,166,2.0,12.0,75,0.00,RMK !SN!,RMK !SN!,0.00,WUHU216DAVISVP2,2013-01-31 23:10:00,
2013-01-31 18:16:00,22.0,15.0,29.83,SSE,157,2.0,13.0,74,0.00,RMK !SN!,RMK !SN!,0.00,WUHU216DAVISVP2,2013-01-31 23:16:00,
2013-01-31 18:21:00,21.9,15.5,29.83,ESE,118,2.0,13.0,76,0.00,RMK !SN!,RMK !SN!,0.00,WUHU216DAVISVP2,2013-01-31 23:21:00,
2013-01-31 18:26:00,21.7,15.9,29.83,ENE,74,4.0,11.0,78,0.00,RMK !SN!,RMK !SN!,0.00,WUHU216DAVISVP2,2013-01-31 23:26:00,
2013-01-31 18:31:00,21.6,16.4,29.84,ENE,65,6.0,11.0,80,0.00,RMK !SN!,RMK !SN!,0.00,WUHU216DAVISVP2,2013-01-31 23:31:00,
2013-01-31 18:36:00,21.7,15.0,29.84,East,80,4.0,11.0,75,0.00,RMK !SN!,RMK !SN!,0.00,WUHU216DAVISVP2,2013-01-31 23:36:00,
2013-01-31 18:41:00,21.9,13.3,29.84,SSE,149,3.0,12.0,69,0.00,RMK !SN!,RMK !SN!,0.00,WUHU216DAVISVP2,2013-01-31 23:41:00,
2013-01-31 18:46:00,21.9,12.0,29.84,West,271,3.0,14.0,65,0.00,RMK !SN!,RMK !SN!,0.00,WUHU216DAVISVP2,2013-01-31 23:46:00,
2013-01-31 18:51:00,21.9,11.6,29.85,ENE,73,5.0,14.0,64,0.00,RMK !SN!,RMK !SN!,0.00,WUHU216DAVISVP2,2013-01-31 23:51:00,
2013-01-31 18:56:00,21.8,10.8,29.85,ENE,78,13.0,14.0,62,0.00,RMK !SN!,RMK !SN!,0.00,WUHU216DAVISVP2,2013-01-31 23:56:00,
2013-01-31 19:01:00,21.7,10.7,29.85,ENE,58,6.0,16.0,62,0.00,RMK !SN!,RMK !SN!,0.00,WUHU216DAVISVP2,2013-02-01 00:01:00,
2013-01-31 19:06:00,21.7,10.7,29.85,ENE,70,16.0,17.0,62,0.00,RMK !SN!,RMK !SN!,0.00,WUHU216DAVISVP2,2013-02-01 00:06:00,
2013-01-31 19:11:00,21.6,10.6,29.86,East,84,11.0,17.0,62,0.00,RMK !SN!,RMK !SN!,0.00,WUHU216DAVISVP2,2013-02-01 00:11:00,
2013-01-31 19:16:00,21.6,11.0,29.86,NE,39,4.0,17.0,63,0.00,RMK !SN!,RMK !SN!,0.00,WUHU216DAVISVP2,2013-02-01 00:16:00,
2013-01-31 19:21:00,21.6,10.6,29.86,ENE,69,11.0,15.0,62,0.00,RMK !SN!,RMK !SN!,0.00,WUHU216DAVISVP2,2013-02-01 00:21:00,
2013-01-31 19:26:00,21.5,10.5,29.86,ESE,112,3.0,18.0,62,0.00,RMK !SN!,RMK !SN!,0.00,WUHU216DAVISVP2,2013-02-01 00:26:00,
2013-01-31 19:31:00,21.4,10.8,29.86,ESE,116,5.0,18.0,63,0.00,RMK !SN!,RMK !SN!,0.00,WUHU216DAVISVP2,2013-02-01 00:31:00,
2013-01-31 19:36:00,21.4,11.9,29.86,East,86,4.0,16.0,66,0.00,RMK !SN!,RMK !SN!,0.00,WUHU216DAVISVP2,2013-02-01 00:36:00,
2013-01-31 19:41:00,21.2,12.7,29.87,NE,37,3.0,16.0,69,0.00,RMK !SN!,RMK !SN!,0.00,WUHU216DAVISVP2,2013-02-01 00:41:00,
2013-01-31 19:46:00,21.0,13.7,29.87,SSW,200,3.0,10.0,73,0.00,RMK !SN!,RMK !SN!,0.00,WUHU216DAVISVP2,2013-02-01 00:46:00,
2013-01-31 19:51:00,20.8,14.4,29.87,ESE,105,0.0,10.0,76,0.00,RMK !SN!,RMK !SN!,0.00,WUHU216DAVISVP2,2013-02-01 00:51:00,
2013-01-31 19:56:00,20.8,13.9,29.88,East,84,2.0,12.0,74,0.00,RMK !SN!,RMK !SN!,0.00,WUHU216DAVISVP2,2013-02-01 00:56:00,
2013-01-31 20:01:00,20.8,13.5,29.88,East,92,1.0,13.0,73,0.00,RMK !SN!,RMK !SN!,0.00,WUHU216DAVISVP2,2013-02-01 01:01:00,
2013-01-31 20:06:00,20.6,13.7,29.88,NE,41,3.0,13.0,74,0.00,RMK !SN!,RMK !SN!,0.00,WUHU216DAVISVP2,2013-02-01 01:06:00,
2013-01-31 20:11:00,20.6,13.4,29.88,East,96,2.0,13.0,73,0.00,RMK !SN!,RMK !SN!,0.00,WUHU216DAVISVP2,2013-02-01 01:11:00,
2013-01-31 20:16:00,20.5,13.3,29.88,East,94,4.0,13.0,73,0.00,RMK !SN!,RMK !SN!,0.00,WUHU216DAVISVP2,2013-02-01 01:16:00,
2013-01-31 20:21:00,20.5,12.9,29.89,WNW,300,6.0,15.0,72,0.00,RMK !SN!,RMK !SN!,0.00,WUHU216DAVISVP2,2013-02-01 01:21:00,
2013-01-31 20:26:00,20.5,13.3,29.89,ESE,103,6.0,15.0,73,0.00,RMK !SN!,RMK !SN!,0.00,WUHU216DAVISVP2,2013-02-01 01:26:00,
2013-01-31 20:31:00,20.4,13.5,29.89,NNE,17,3.0,14.0,74,0.00,RMK !SN!,RMK !SN!,0.00,WUHU216DAVISVP2,2013-02-01 01:31:00,
2013-01-31 20:36:00,20.2,13.6,29.89,NNE,16,3.0,14.0,75,0.00,RMK !SN!,RMK !SN!,0.00,WUHU216DAVISVP2,2013-02-01 01:36:00,
2013-01-31 20:41:00,20.0,14.5,29.89,East,84,2.0,12.0,79,0.00,RMK !SN!,RMK !SN!,0.00,WUHU216DAVISVP2,2013-02-01 01:41:00,
2013-01-31 20:47:00,19.6,15.3,29.89,SE,134,1.0,11.0,83,0.00,RMK !SN!,RMK !SN!,0.00,WUHU216DAVISVP2,2013-02-01 01:47:00,
2013-01-31 20:52:00,19.4,15.4,29.90,SSE,155,5.0,11.0,84,0.00,RMK !SN!,RMK !SN!,0.00,WUHU216DAVISVP2,2013-02-01 01:52:00,
2013-01-31 20:57:00,19.3,14.7,29.90,ENE,71,7.0,11.0,82,0.00,RMK !SN!,RMK !SN!,0.00,WUHU216DAVISVP2,2013-02-01 01:57:00,
2013-01-31 21:02:00,19.1,14.5,29.90,ENE,66,5.0,14.0,82,0.00,RMK !SN!,RMK !SN!,0.00,WUHU216DAVISVP2,2013-02-01 02:02:00,
2013-01-31 21:07:00,18.8,15.0,29.91,ENE,58,9.0,14.0,85,0.00,RMK !SN!,RMK !SN!,0.00,WUHU216DAVISVP2,2013-02-01 02:07:00,
2013-01-31 21:12:00,18.5,14.7,29.91,ESE,107,1.0,14.0,85,0.00,RMK !SN!,RMK !SN!,0.00,WUHU216DAVISVP2,2013-02-01 02:12:00,
2013-01-31 21:17:00,18.4,14.1,29.91,East,86,7.0,13.0,83,0.00,RMK !SN!,RMK !SN!,0.00,WUHU216DAVISVP2,2013-02-01 02:17:00,
2013-01-31 21:22:00,18.4,13.8,29.91,NNE,21,5.0,13.0,82,0.00,RMK !SN!,RMK !SN!,0.00,WUHU216DAVISVP2,2013-02-01 02:22:00,
2013-01-31 21:27:00,18.4,13.3,29.91,East,86,5.0,11.0,80,0.00,RMK !SN!,RMK !SN!,0.00,WUHU216DAVISVP2,2013-02-01 02:27:00,
2013-01-31 21:32:00,18.5,13.1,29.91,SSE,163,0.0,11.0,79,0.00,RMK !SN!,RMK !SN!,0.00,WUHU216DAVISVP2,2013-02-01 02:32:00,
2013-01-31 21:37:00,18.5,12.8,29.91,SSW,208,4.0,10.0,78,0.00,RMK !SN!,RMK !SN!,0.00,WUHU216DAVISVP2,2013-02-01 02:37:00,
2013-01-31 21:42:00,18.6,12.3,29.91,ENE,59,3.0,10.0,76,0.00,RMK !SN!,RMK !SN!,0.00,WUHU216DAVISVP2,2013-02-01 02:42:00,
2013-01-31 21:47:00,18.6,12.0,29.91,ENE,69,4.0,15.0,75,0.00,RMK !SN!,RMK !SN!,0.00,WUHU216DAVISVP2,2013-02-01 02:47:00,
2013-01-31 21:52:00,18.5,11.6,29.92,ENE,63,8.0,15.0,74,0.00,RMK !SN!,RMK !SN!,0.00,WUHU216DAVISVP2,2013-02-01 02:52:00,
2013-01-31 21:57:00,18.3,11.1,29.92,ENE,58,5.0,13.0,73,0.00,RMK !SN!,RMK !SN!,0.00,WUHU216DAVISVP2,2013-02-01 02:57:00,
2013-01-31 22:02:00,18.1,10.9,29.92,NNE,32,7.0,14.0,73,0.00,RMK !SN!,RMK !SN!,0.00,WUHU216DAVISVP2,2013-02-01 03:02:00,
2013-01-31 22:07:00,17.9,10.4,29.92,ENE,78,1.0,14.0,72,0.00,RMK !SN!,RMK !SN!,0.00,WUHU216DAVISVP2,2013-02-01 03:07:00,
2013-01-31 22:12:00,17.8,10.0,29.92,ESE,111,7.0,13.0,71,0.00,RMK !SN!,RMK !SN!,0.00,WUHU216DAVISVP2,2013-02-01 03:12:00,
2013-01-31 22:17:00,17.8,10.0,29.92,East,93,2.0,13.0,71,0.00,RMK !SN!,RMK !SN!,0.00,WUHU216DAVISVP2,2013-02-01 03:17:00,
2013-01-31 22:22:00,17.8,10.0,29.92,East,79,3.0,13.0,71,0.00,RMK !SN!,RMK !SN!,0.00,WUHU216DAVISVP2,2013-02-01 03:22:00,
2013-01-31 22:27:00,17.8,10.0,29.92,SSE,166,3.0,13.0,71,0.00,RMK !SN!,RMK !SN!,0.00,WUHU216DAVISVP2,2013-02-01 03:27:00,
2013-01-31 22:32:00,17.8,10.3,29.92,East,89,2.0,13.0,72,0.00,RMK !SN!,RMK !SN!,0.00,WUHU216DAVISVP2,2013-02-01 03:32:00,
2013-01-31 22:37:00,17.7,10.2,29.91,East,79,4.0,12.0,72,0.00,RMK !SN!,RMK !SN!,0.00,WUHU216DAVISVP2,2013-02-01 03:37:00,
2013-01-31 22:42:00,17.7,10.2,29.91,ENE,65,3.0,12.0,72,0.00,RMK !SN!,RMK !SN!,0.00,WUHU216DAVISVP2,2013-02-01 03:42:00,
2013-01-31 22:47:00,17.7,9.6,29.91,NE,37,1.0,11.0,70,0.00,RMK !SN!,RMK !SN!,0.00,WUHU216DAVISVP2,2013-02-01 03:47:00,
2013-01-31 22:52:00,17.6,9.2,29.91,ENE,57,6.0,11.0,69,0.00,RMK !SN!,RMK !SN!,0.00,WUHU216DAVISVP2,2013-02-01 03:52:00,
2013-01-31 22:57:00,17.6,8.9,29.92,SE,145,2.0,10.0,68,0.00,RMK !SN!,RMK !SN!,0.00,WUHU216DAVISVP2,2013-02-01 03:57:00,
2013-01-31 23:02:00,17.6,8.6,29.91,SW,224,1.0,12.0,67,0.00,RMK !SN!,RMK !SN!,0.00,WUHU216DAVISVP2,2013-02-01 04:02:00,
2013-01-31 23:07:00,17.6,7.9,29.91,East,80,6.0,12.0,65,0.00,RMK !SN!,RMK !SN!,0.00,WUHU216DAVISVP2,2013-02-01 04:07:00,
2013-01-31 23:12:00,17.7,8.0,29.92,SE,142,4.0,15.0,65,0.00,RMK !SN!,RMK !SN!,0.00,WUHU216DAVISVP2,2013-02-01 04:12:00,
2013-01-31 23:17:00,17.8,7.7,29.92,SE,134,1.0,15.0,64,0.00,RMK !SN!,RMK !SN!,0.00,WUHU216DAVISVP2,2013-02-01 04:17:00,
2013-01-31 23:22:00,17.8,8.1,29.92,East,96,6.0,13.0,65,0.00,RMK !SN!,RMK !SN!,0.00,WUHU216DAVISVP2,2013-02-01 04:22:00,
2013-01-31 23:27:00,17.9,8.5,29.92,ENE,58,5.0,11.0,66,0.00,RMK !SN!,RMK !SN!,0.00,WUHU216DAVISVP2,2013-02-01 04:27:00,
2013-01-31 23:32:00,17.9,8.8,29.92,ENE,70,8.0,10.0,67,0.00,RMK !SN!,RMK !SN!,0.00,WUHU216DAVISVP2,2013-02-01 04:32:00,
2013-01-31 23:37:00,17.9,8.5,29.91,East,84,0.0,10.0,66,0.00,RMK !SN!,RMK !SN!,0.00,WUHU216DAVISVP2,2013-02-01 04:37:00,
2013-01-31 23:42:00,17.8,8.7,29.91,ENE,70,3.0,10.0,67,0.00,RMK !SN!,RMK !SN!,0.00,WUHU216DAVISVP2,2013-02-01 04:42:00,
2013-01-31 23:47:00,17.6,8.9,29.91,East,88,0.0,9.0,68,0.00,RMK !SN!,RMK !SN!,0.00,WUHU216DAVISVP2,2013-02-01 04:47:00,
2013-01-31 23:52:00,17.5,9.1,29.91,ENE,76,1.0,8.0,69,0.00,RMK !SN!,RMK !SN!,0.00,WUHU216DAVISVP2,2013-02-01 04:52:00,
2013-01-31 23:57:00,17.4,9.0,29.90,SE,137,4.0,9.0,69,0.00,RMK !SN!,RMK !SN!,0.00,WUHU216DAVISVP2,2013-02-01 04:57:00,